Terminal Aerodrome Forecast
Issued by NWS

Home | Current Version | Previous Version | Text Only | Print | Product List | Glossary On
Versions: 1 2 3 4 5 6 7 8 9 10 11 12 13 14 15 16 17 18 19 20 21 22 23 24 25 26
000
FTUS44 KLIX 271132
TAFMSY
TAF
KMSY 271132Z 2712/2812 09006KT P6SM SCT010 BKN070
      TEMPO 2712/2714 5SM BR
     FM271400 10010KT P6SM VCTS BKN015CB
     FM271700 11014KT 4SM SHRA OVC025
      TEMPO 2718/2722 VRB25G35KT +TSRA OVC010CB
     FM272300 06013KT 4SM SHRA OVC015
     FM280500 10012KT 6SM -SHRA OVC015=

USA.gov is the U.S. government's official web portal to all federal, state and local government web resources and services.